Kettering, Ohio
Current Conditions -  °F | °C
As of 4:53 PM on Monday 24 Nov 2014 (Local Time) from KMGY Reporting Station
Overcast Overcast  
Wind Chill: 36°   Ceiling: 3600
Heat Index: 44°   Visibility: 10mi
Dew Point: 32°   Wind: 18mph
Humidity: 63%   Direction: 230°SW
Pressure: 29.71"   Gusts: 30mph
Location:  39.7°N, 84.16°W
Report Text: KMGY 242153Z AUTO 23016G26KT 10SM OVC036 07/00 A2971 RMK AO2 PK WND 24031/2132 SLP060 T00670000
Loading
Personal Weather Stations






























Interactive Weather Map New forecast layout! Learn more

10-Day Weather Forecast

Advertisements
Track Severe Weather on mobile